sensor_id;sensor_type;location;lat;lon;timestamp;pressure;altitude;pressure_sealevel;temperature;humidity
64230;BME280;50547;49.498;0.092;2023-03-04T00:00:47;1025.91;;;6.16;72.87
64230;BME280;50547;49.498;0.092;2023-03-04T00:03:16;1025.87;;;6.13;73.00
64230;BME280;50547;49.498;0.092;2023-03-04T00:05:45;1025.85;;;6.17;72.82
64230;BME280;50547;49.498;0.092;2023-03-04T00:08:14;1025.85;;;6.13;72.98
64230;BME280;50547;49.498;0.092;2023-03-04T00:10:43;1025.87;;;6.07;73.16
64230;BME280;50547;49.498;0.092;2023-03-04T00:13:13;1025.89;;;5.98;73.52
64230;BME280;50547;49.498;0.092;2023-03-04T00:15:42;1025.89;;;5.97;73.42
64230;BME280;50547;49.498;0.092;2023-03-04T00:18:11;1025.91;;;5.92;73.48
64230;BME280;50547;49.498;0.092;2023-03-04T00:20:40;1025.95;;;5.95;73.29
64230;BME280;50547;49.498;0.092;2023-03-04T00:23:09;1025.95;;;6.11;72.40
64230;BME280;50547;49.498;0.092;2023-03-04T00:25:38;1025.93;;;6.16;72.34
64230;BME280;50547;49.498;0.092;2023-03-04T00:28:07;1025.95;;;6.03;72.71
64230;BME280;50547;49.498;0.092;2023-03-04T00:30:36;1025.89;;;6.00;73.01
64230;BME280;50547;49.498;0.092;2023-03-04T00:33:06;1025.95;;;5.89;73.42
64230;BME280;50547;49.498;0.092;2023-03-04T00:35:35;1025.91;;;5.83;73.51
64230;BME280;50547;49.498;0.092;2023-03-04T00:38:04;1025.89;;;5.72;73.91
64230;BME280;50547;49.498;0.092;2023-03-04T00:40:33;1025.91;;;5.71;73.75
64230;BME280;50547;49.498;0.092;2023-03-04T00:43:03;1025.89;;;5.55;74.21
64230;BME280;50547;49.498;0.092;2023-03-04T00:45:32;1025.91;;;5.44;74.86
64230;BME280;50547;49.498;0.092;2023-03-04T00:48:01;1025.95;;;5.52;74.25
64230;BME280;50547;49.498;0.092;2023-03-04T00:50:30;1025.97;;;5.46;74.39
64230;BME280;50547;49.498;0.092;2023-03-04T00:52:59;1025.99;;;5.37;74.81
64230;BME280;50547;49.498;0.092;2023-03-04T00:55:28;1026.08;;;5.41;74.54
64230;BME280;50547;49.498;0.092;2023-03-04T00:57:58;1026.10;;;5.35;74.69
64230;BME280;50547;49.498;0.092;2023-03-04T01:00:27;1026.08;;;5.33;74.82
64230;BME280;50547;49.498;0.092;2023-03-04T01:02:56;1025.99;;;5.30;74.76
64230;BME280;50547;49.498;0.092;2023-03-04T01:05:25;1026.08;;;5.31;74.82
64230;BME280;50547;49.498;0.092;2023-03-04T01:07:55;1026.08;;;5.29;74.82
64230;BME280;50547;49.498;0.092;2023-03-04T01:10:24;1025.99;;;5.22;75.08
64230;BME280;50547;49.498;0.092;2023-03-04T01:12:53;1025.95;;;5.15;75.33
64230;BME280;50547;49.498;0.092;2023-03-04T01:15:22;1025.97;;;5.14;75.23
64230;BME280;50547;49.498;0.092;2023-03-04T01:17:52;1025.97;;;4.99;75.82
64230;BME280;50547;49.498;0.092;2023-03-04T01:20:21;1025.97;;;4.95;76.10
64230;BME280;50547;49.498;0.092;2023-03-04T01:22:50;1025.93;;;4.88;76.27
64230;BME280;50547;49.498;0.092;2023-03-04T01:25:19;1025.95;;;4.96;75.65
64230;BME280;50547;49.498;0.092;2023-03-04T01:27:48;1025.95;;;5.02;75.41
64230;BME280;50547;49.498;0.092;2023-03-04T01:30:17;1025.93;;;5.23;74.60
64230;BME280;50547;49.498;0.092;2023-03-04T01:32:47;1025.91;;;5.31;74.50
64230;BME280;50547;49.498;0.092;2023-03-04T01:35:16;1025.87;;;5.32;74.41
64230;BME280;50547;49.498;0.092;2023-03-04T01:37:45;1025.85;;;5.28;74.69
64230;BME280;50547;49.498;0.092;2023-03-04T01:40:14;1025.79;;;5.13;74.99
64230;BME280;50547;49.498;0.092;2023-03-04T01:42:44;1025.79;;;5.11;75.29
64230;BME280;50547;49.498;0.092;2023-03-04T01:45:16;1025.79;;;5.14;74.95
64230;BME280;50547;49.498;0.092;2023-03-04T01:47:47;1025.79;;;5.20;74.71
64230;BME280;50547;49.498;0.092;2023-03-04T01:50:21;1025.77;;;5.15;74.81
64230;BME280;50547;49.498;0.092;2023-03-04T01:52:50;1025.74;;;5.12;74.93
64230;BME280;50547;49.498;0.092;2023-03-04T01:55:21;1025.72;;;4.97;75.59
64230;BME280;50547;49.498;0.092;2023-03-04T01:57:51;1025.74;;;4.87;75.97
64230;BME280;50547;49.498;0.092;2023-03-04T02:00:26;1025.72;;;4.74;76.54
64230;BME280;50547;49.498;0.092;2023-03-04T02:02:58;1025.76;;;4.68;76.77
64230;BME280;50547;49.498;0.092;2023-03-04T02:05:28;1025.74;;;4.63;76.93
64230;BME280;50547;49.498;0.092;2023-03-04T02:07:58;1025.77;;;4.56;77.20
64230;BME280;50547;49.498;0.092;2023-03-04T02:10:28;1025.79;;;4.55;77.21
64230;BME280;50547;49.498;0.092;2023-03-04T02:12:58;1025.72;;;4.51;77.39
64230;BME280;50547;49.498;0.092;2023-03-04T02:15:33;1025.72;;;4.52;77.26
64230;BME280;50547;49.498;0.092;2023-03-04T02:18:07;1025.70;;;4.48;77.48
64230;BME280;50547;49.498;0.092;2023-03-04T02:20:47;1025.68;;;4.47;77.49
64230;BME280;50547;49.498;0.092;2023-03-04T02:23:26;1025.64;;;4.46;77.63
64230;BME280;50547;49.498;0.092;2023-03-04T02:26:10;1025.64;;;4.49;77.54
64230;BME280;50547;49.498;0.092;2023-03-04T02:28:40;1025.58;;;4.57;77.26
64230;BME280;50547;49.498;0.092;2023-03-04T02:31:21;1025.54;;;4.54;77.39
64230;BME280;50547;49.498;0.092;2023-03-04T02:33:51;1025.60;;;4.57;77.26
64230;BME280;50547;49.498;0.092;2023-03-04T02:36:22;1025.56;;;4.60;77.16
64230;BME280;50547;49.498;0.092;2023-03-04T02:38:52;1025.54;;;4.57;77.34
64230;BME280;50547;49.498;0.092;2023-03-04T02:41:24;1025.52;;;4.61;77.29
64230;BME280;50547;49.498;0.092;2023-03-04T02:43:54;1025.50;;;4.61;77.33
64230;BME280;50547;49.498;0.092;2023-03-04T02:46:24;1025.54;;;4.58;77.55
64230;BME280;50547;49.498;0.092;2023-03-04T02:48:53;1025.50;;;4.57;77.67
64230;BME280;50547;49.498;0.092;2023-03-04T02:51:22;1025.50;;;4.64;77.47
64230;BME280;50547;49.498;0.092;2023-03-04T02:53:51;1025.50;;;4.76;76.90
64230;BME280;50547;49.498;0.092;2023-03-04T02:56:20;1025.52;;;4.77;76.88
64230;BME280;50547;49.498;0.092;2023-03-04T02:58:50;1025.48;;;4.83;76.64
64230;BME280;50547;49.498;0.092;2023-03-04T03:01:19;1025.50;;;5.02;75.92
64230;BME280;50547;49.498;0.092;2023-03-04T03:03:48;1025.48;;;4.98;75.90
64230;BME280;50547;49.498;0.092;2023-03-04T03:06:17;1025.44;;;5.13;75.41
64230;BME280;50547;49.498;0.092;2023-03-04T03:08:46;1025.46;;;5.18;75.22
64230;BME280;50547;49.498;0.092;2023-03-04T03:11:15;1025.36;;;5.36;74.37
64230;BME280;50547;49.498;0.092;2023-03-04T03:13:45;1025.36;;;5.49;74.05
64230;BME280;50547;49.498;0.092;2023-03-04T03:16:14;1025.38;;;5.75;73.24
64230;BME280;50547;49.498;0.092;2023-03-04T03:18:43;1025.34;;;6.00;72.43
64230;BME280;50547;49.498;0.092;2023-03-04T03:21:12;1025.32;;;6.15;71.78
64230;BME280;50547;49.498;0.092;2023-03-04T03:23:41;1025.32;;;6.22;71.64
64230;BME280;50547;49.498;0.092;2023-03-04T03:26:11;1025.32;;;6.39;71.30
64230;BME280;50547;49.498;0.092;2023-03-04T03:28:40;1025.32;;;6.51;70.83
64230;BME280;50547;49.498;0.092;2023-03-04T03:31:09;1025.34;;;6.71;70.78
64230;BME280;50547;49.498;0.092;2023-03-04T03:33:38;1025.32;;;6.75;70.61
64230;BME280;50547;49.498;0.092;2023-03-04T03:36:08;1025.34;;;6.87;70.23
64230;BME280;50547;49.498;0.092;2023-03-04T03:38:37;1025.34;;;6.87;70.32
64230;BME280;50547;49.498;0.092;2023-03-04T03:41:06;1025.34;;;6.95;69.17
64230;BME280;50547;49.498;0.092;2023-03-04T03:43:36;1025.36;;;6.76;69.54
64230;BME280;50547;49.498;0.092;2023-03-04T03:46:05;1025.40;;;6.54;70.52
64230;BME280;50547;49.498;0.092;2023-03-04T03:48:34;1025.40;;;6.34;71.49
64230;BME280;50547;49.498;0.092;2023-03-04T03:51:03;1025.42;;;6.09;72.45
64230;BME280;50547;49.498;0.092;2023-03-04T03:53:33;1025.40;;;5.93;72.79
64230;BME280;50547;49.498;0.092;2023-03-04T03:56:02;1025.40;;;5.84;73.10
64230;BME280;50547;49.498;0.092;2023-03-04T03:58:31;1025.38;;;5.88;72.78
64230;BME280;50547;49.498;0.092;2023-03-04T04:01:00;1025.32;;;6.00;72.13
64230;BME280;50547;49.498;0.092;2023-03-04T04:03:30;1025.34;;;5.85;72.48
64230;BME280;50547;49.498;0.092;2023-03-04T04:05:59;1025.36;;;5.80;72.64
64230;BME280;50547;49.498;0.092;2023-03-04T04:08:28;1025.32;;;5.77;72.70
64230;BME280;50547;49.498;0.092;2023-03-04T04:10:57;1025.36;;;5.74;72.71
64230;BME280;50547;49.498;0.092;2023-03-04T04:13:26;1025.36;;;5.64;73.13
64230;BME280;50547;49.498;0.092;2023-03-04T04:15:55;1025.42;;;5.67;72.92
64230;BME280;50547;49.498;0.092;2023-03-04T04:18:25;1025.40;;;5.66;72.72
64230;BME280;50547;49.498;0.092;2023-03-04T04:20:54;1025.44;;;5.61;72.93
64230;BME280;50547;49.498;0.092;2023-03-04T04:23:24;1025.48;;;5.69;72.51
64230;BME280;50547;49.498;0.092;2023-03-04T04:25:53;1025.46;;;5.78;72.10
64230;BME280;50547;49.498;0.092;2023-03-04T04:28:23;1025.46;;;5.78;72.13
64230;BME280;50547;49.498;0.092;2023-03-04T04:30:53;1025.50;;;5.95;71.55
64230;BME280;50547;49.498;0.092;2023-03-04T04:33:22;1025.50;;;6.00;71.39
64230;BME280;50547;49.498;0.092;2023-03-04T04:35:51;1025.48;;;6.16;70.73
64230;BME280;50547;49.498;0.092;2023-03-04T04:38:21;1025.52;;;6.22;70.32
64230;BME280;50547;49.498;0.092;2023-03-04T04:40:50;1025.52;;;6.28;70.39
64230;BME280;50547;49.498;0.092;2023-03-04T04:43:19;1025.54;;;6.19;70.59
64230;BME280;50547;49.498;0.092;2023-03-04T04:45:48;1025.58;;;6.25;70.64
64230;BME280;50547;49.498;0.092;2023-03-04T04:48:17;1025.60;;;6.29;70.12
64230;BME280;50547;49.498;0.092;2023-03-04T04:50:53;1025.60;;;6.30;70.17
64230;BME280;50547;49.498;0.092;2023-03-04T04:53:22;1025.64;;;6.46;70.09
64230;BME280;50547;49.498;0.092;2023-03-04T04:55:51;1025.62;;;6.51;69.53
64230;BME280;50547;49.498;0.092;2023-03-04T04:58:21;1025.64;;;6.39;70.07
64230;BME280;50547;49.498;0.092;2023-03-04T05:00:50;1025.64;;;6.33;70.25
64230;BME280;50547;49.498;0.092;2023-03-04T05:03:19;1025.70;;;6.12;70.99
64230;BME280;50547;49.498;0.092;2023-03-04T05:05:48;1025.68;;;6.12;70.91
64230;BME280;50547;49.498;0.092;2023-03-04T05:08:22;1025.66;;;6.22;70.40
64230;BME280;50547;49.498;0.092;2023-03-04T05:10:52;1025.70;;;6.28;70.14
64230;BME280;50547;49.498;0.092;2023-03-04T05:13:21;1025.70;;;6.42;69.46
64230;BME280;50547;49.498;0.092;2023-03-04T05:15:51;1025.72;;;6.32;69.66
64230;BME280;50547;49.498;0.092;2023-03-04T05:18:22;1025.68;;;6.35;69.69
64230;BME280;50547;49.498;0.092;2023-03-04T05:20:52;1025.68;;;6.24;70.25
64230;BME280;50547;49.498;0.092;2023-03-04T05:23:22;1025.62;;;6.30;70.02
64230;BME280;50547;49.498;0.092;2023-03-04T05:25:52;1025.62;;;6.31;70.06
64230;BME280;50547;49.498;0.092;2023-03-04T05:28:22;1025.56;;;6.53;69.28
64230;BME280;50547;49.498;0.092;2023-03-04T05:30:51;1025.58;;;6.62;68.89
64230;BME280;50547;49.498;0.092;2023-03-04T05:33:21;1025.58;;;6.75;68.43
64230;BME280;50547;49.498;0.092;2023-03-04T05:35:50;1025.56;;;6.88;68.25
64230;BME280;50547;49.498;0.092;2023-03-04T05:38:20;1025.58;;;7.14;67.88
64230;BME280;50547;49.498;0.092;2023-03-04T05:40:55;1025.60;;;7.26;67.65
64230;BME280;50547;49.498;0.092;2023-03-04T05:43:26;1025.54;;;7.21;67.71
64230;BME280;50547;49.498;0.092;2023-03-04T05:45:55;1025.54;;;7.20;67.91
64230;BME280;50547;49.498;0.092;2023-03-04T05:48:24;1025.58;;;6.97;68.47
64230;BME280;50547;49.498;0.092;2023-03-04T05:50:54;1025.64;;;6.87;68.90
64230;BME280;50547;49.498;0.092;2023-03-04T05:53:23;1025.56;;;6.83;69.00
64230;BME280;50547;49.498;0.092;2023-03-04T05:55:53;1025.62;;;6.89;68.79
64230;BME280;50547;49.498;0.092;2023-03-04T05:58:22;1025.62;;;7.06;68.16
64230;BME280;50547;49.498;0.092;2023-03-04T06:00:51;1025.62;;;7.14;68.09
64230;BME280;50547;49.498;0.092;2023-03-04T06:03:21;1025.62;;;7.19;67.92
64230;BME280;50547;49.498;0.092;2023-03-04T06:05:50;1025.60;;;7.18;67.82
64230;BME280;50547;49.498;0.092;2023-03-04T06:08:19;1025.58;;;7.26;67.70
64230;BME280;50547;49.498;0.092;2023-03-04T06:10:51;1025.58;;;7.14;67.86
64230;BME280;50547;49.498;0.092;2023-03-04T06:13:21;1025.58;;;7.02;68.09
64230;BME280;50547;49.498;0.092;2023-03-04T06:15:53;1025.58;;;7.01;68.25
64230;BME280;50547;49.498;0.092;2023-03-04T06:18:24;1025.66;;;6.88;68.52
64230;BME280;50547;49.498;0.092;2023-03-04T06:20:56;1025.66;;;6.90;68.75
64230;BME280;50547;49.498;0.092;2023-03-04T06:23:26;1025.66;;;7.08;68.19
64230;BME280;50547;49.498;0.092;2023-03-04T06:25:57;1025.66;;;7.17;68.02
64230;BME280;50547;49.498;0.092;2023-03-04T06:28:27;1025.72;;;7.34;67.69
64230;BME280;50547;49.498;0.092;2023-03-04T06:30:56;1025.76;;;7.32;67.35
64230;BME280;50547;49.498;0.092;2023-03-04T06:33:25;1025.77;;;7.34;67.44
64230;BME280;50547;49.498;0.092;2023-03-04T06:35:56;1025.79;;;7.44;67.31
64230;BME280;50547;49.498;0.092;2023-03-04T06:38:25;1025.85;;;7.46;67.31
64230;BME280;50547;49.498;0.092;2023-03-04T06:40:54;1025.87;;;7.46;67.63
64230;BME280;50547;49.498;0.092;2023-03-04T06:43:24;1025.83;;;7.55;67.61
64230;BME280;50547;49.498;0.092;2023-03-04T06:45:53;1025.85;;;7.63;67.24
64230;BME280;50547;49.498;0.092;2023-03-04T06:48:22;1025.89;;;7.78;66.81
64230;BME280;50547;49.498;0.092;2023-03-04T06:50:51;1025.91;;;7.85;66.93
64230;BME280;50547;49.498;0.092;2023-03-04T06:53:20;1025.89;;;8.07;66.36
64230;BME280;50547;49.498;0.092;2023-03-04T06:55:49;1025.93;;;7.86;66.58
64230;BME280;50547;49.498;0.092;2023-03-04T06:58:18;1025.91;;;7.23;70.06
64230;BME280;50547;49.498;0.092;2023-03-04T07:00:47;1025.99;;;7.28;69.79
64230;BME280;50547;49.498;0.092;2023-03-04T07:03:17;1025.95;;;7.43;69.09
64230;BME280;50547;49.498;0.092;2023-03-04T07:05:46;1026.08;;;7.50;68.66
64230;BME280;50547;49.498;0.092;2023-03-04T07:08:15;1025.99;;;7.49;68.45
64230;BME280;50547;49.498;0.092;2023-03-04T07:10:44;1025.95;;;7.56;68.39
64230;BME280;50547;49.498;0.092;2023-03-04T07:13:13;1026.12;;;7.92;67.52
64230;BME280;50547;49.498;0.092;2023-03-04T07:15:42;1026.12;;;8.06;67.19
64230;BME280;50547;49.498;0.092;2023-03-04T07:18:12;1026.16;;;8.33;66.84
64230;BME280;50547;49.498;0.092;2023-03-04T07:20:41;1026.12;;;8.49;66.80
64230;BME280;50547;49.498;0.092;2023-03-04T07:23:10;1026.16;;;8.61;66.80
64230;BME280;50547;49.498;0.092;2023-03-04T07:25:39;1026.14;;;8.44;66.55
64230;BME280;50547;49.498;0.092;2023-03-04T07:28:08;1026.20;;;7.84;69.24
64230;BME280;50547;49.498;0.092;2023-03-04T07:30:37;1026.20;;;7.75;69.66
64230;BME280;50547;49.498;0.092;2023-03-04T07:33:06;1026.18;;;7.66;70.00
64230;BME280;50547;49.498;0.092;2023-03-04T07:35:36;1026.20;;;7.60;70.19
64230;BME280;50547;49.498;0.092;2023-03-04T07:38:05;1026.25;;;7.33;71.84
64230;BME280;50547;49.498;0.092;2023-03-04T07:40:34;1026.23;;;7.25;72.19
64230;BME280;50547;49.498;0.092;2023-03-04T07:43:04;1026.25;;;7.40;71.53
64230;BME280;50547;49.498;0.092;2023-03-04T07:45:33;1026.27;;;7.28;71.99
64230;BME280;50547;49.498;0.092;2023-03-04T07:48:02;1026.25;;;7.41;71.59
64230;BME280;50547;49.498;0.092;2023-03-04T07:50:32;1026.29;;;7.45;71.16
64230;BME280;50547;49.498;0.092;2023-03-04T07:53:01;1026.33;;;7.68;70.74
64230;BME280;50547;49.498;0.092;2023-03-04T07:55:30;1026.43;;;7.89;70.48
64230;BME280;50547;49.498;0.092;2023-03-04T07:57:59;1026.39;;;8.09;69.96
64230;BME280;50547;49.498;0.092;2023-03-04T08:00:28;1026.41;;;8.30;69.39
64230;BME280;50547;49.498;0.092;2023-03-04T08:02:57;1026.43;;;8.07;69.97
64230;BME280;50547;49.498;0.092;2023-03-04T08:05:27;1026.51;;;8.06;70.14
64230;BME280;50547;49.498;0.092;2023-03-04T08:07:56;1026.53;;;7.83;71.35
64230;BME280;50547;49.498;0.092;2023-03-04T08:10:25;1026.57;;;7.85;71.21
64230;BME280;50547;49.498;0.092;2023-03-04T08:12:55;1026.59;;;7.92;71.16
64230;BME280;50547;49.498;0.092;2023-03-04T08:15:24;1026.59;;;7.73;72.01
64230;BME280;50547;49.498;0.092;2023-03-04T08:17:53;1026.57;;;7.56;72.77
64230;BME280;50547;49.498;0.092;2023-03-04T08:20:22;1026.53;;;7.63;72.55
64230;BME280;50547;49.498;0.092;2023-03-04T08:22:51;1026.55;;;7.81;71.91
64230;BME280;50547;49.498;0.092;2023-03-04T08:25:20;1026.59;;;8.17;70.83
64230;BME280;50547;49.498;0.092;2023-03-04T08:27:50;1026.61;;;8.32;70.45
64230;BME280;50547;49.498;0.092;2023-03-04T08:30:19;1026.65;;;8.53;70.33
64230;BME280;50547;49.498;0.092;2023-03-04T08:32:48;1026.61;;;8.50;70.37
64230;BME280;50547;49.498;0.092;2023-03-04T08:35:17;1026.65;;;8.62;70.01
64230;BME280;50547;49.498;0.092;2023-03-04T08:37:47;1026.63;;;8.42;70.23
64230;BME280;50547;49.498;0.092;2023-03-04T08:40:16;1026.63;;;8.23;71.08
64230;BME280;50547;49.498;0.092;2023-03-04T08:42:45;1026.61;;;7.89;72.24
64230;BME280;50547;49.498;0.092;2023-03-04T08:45:14;1026.57;;;7.72;72.73
64230;BME280;50547;49.498;0.092;2023-03-04T08:47:44;1026.55;;;7.66;73.10
64230;BME280;50547;49.498;0.092;2023-03-04T08:50:13;1026.59;;;7.60;72.54
64230;BME280;50547;49.498;0.092;2023-03-04T08:52:42;1026.63;;;7.70;72.15
64230;BME280;50547;49.498;0.092;2023-03-04T08:55:11;1026.59;;;7.66;72.11
64230;BME280;50547;49.498;0.092;2023-03-04T08:57:40;1026.63;;;7.91;71.24
64230;BME280;50547;49.498;0.092;2023-03-04T09:00:11;1026.61;;;7.85;71.12
64230;BME280;50547;49.498;0.092;2023-03-04T09:02:40;1026.59;;;7.63;71.57
64230;BME280;50547;49.498;0.092;2023-03-04T09:05:09;1026.61;;;7.66;71.30
64230;BME280;50547;49.498;0.092;2023-03-04T09:07:38;1026.59;;;7.59;71.37
64230;BME280;50547;49.498;0.092;2023-03-04T09:10:09;1026.57;;;7.47;72.11
64230;BME280;50547;49.498;0.092;2023-03-04T09:12:38;1026.59;;;7.47;72.16
64230;BME280;50547;49.498;0.092;2023-03-04T09:15:08;1026.53;;;7.26;73.50
64230;BME280;50547;49.498;0.092;2023-03-04T09:17:38;1026.55;;;7.25;73.89
64230;BME280;50547;49.498;0.092;2023-03-04T09:20:09;1026.55;;;7.34;72.88
64230;BME280;50547;49.498;0.092;2023-03-04T09:22:41;1026.57;;;7.53;72.47
64230;BME280;50547;49.498;0.092;2023-03-04T09:25:12;1026.55;;;7.71;72.36
64230;BME280;50547;49.498;0.092;2023-03-04T09:27:42;1026.55;;;7.92;71.65
64230;BME280;50547;49.498;0.092;2023-03-04T09:30:11;1026.53;;;7.73;72.38
64230;BME280;50547;49.498;0.092;2023-03-04T09:32:41;1026.59;;;7.94;72.02
64230;BME280;50547;49.498;0.092;2023-03-04T09:35:10;1026.55;;;7.87;71.17
64230;BME280;50547;49.498;0.092;2023-03-04T09:37:39;1026.51;;;7.59;73.07
64230;BME280;50547;49.498;0.092;2023-03-04T09:40:15;1026.53;;;7.82;71.95
64230;BME280;50547;49.498;0.092;2023-03-04T09:42:49;1026.61;;;7.99;71.23
64230;BME280;50547;49.498;0.092;2023-03-04T09:45:22;1026.57;;;7.57;73.61
64230;BME280;50547;49.498;0.092;2023-03-04T09:47:53;1026.61;;;7.49;74.28
64230;BME280;50547;49.498;0.092;2023-03-04T09:50:24;1026.61;;;7.29;75.93
64230;BME280;50547;49.498;0.092;2023-03-04T09:53:04;1026.65;;;7.20;76.66
64230;BME280;50547;49.498;0.092;2023-03-04T09:55:37;1026.67;;;7.42;75.96
64230;BME280;50547;49.498;0.092;2023-03-04T09:58:20;1026.63;;;7.51;75.38
64230;BME280;50547;49.498;0.092;2023-03-04T10:00:55;1026.61;;;7.62;75.30
64230;BME280;50547;49.498;0.092;2023-03-04T10:03:33;1026.55;;;8.01;74.78
64230;BME280;50547;49.498;0.092;2023-03-04T10:06:08;1026.53;;;8.37;73.81
64230;BME280;50547;49.498;0.092;2023-03-04T10:08:40;1026.53;;;8.81;71.55
64230;BME280;50547;49.498;0.092;2023-03-04T10:11:16;1026.61;;;8.61;72.29
64230;BME280;50547;49.498;0.092;2023-03-04T10:13:54;1026.65;;;8.35;73.31
64230;BME280;50547;49.498;0.092;2023-03-04T10:16:29;1026.65;;;7.73;76.19
64230;BME280;50547;49.498;0.092;2023-03-04T10:19:14;1026.65;;;7.59;76.86
64230;BME280;50547;49.498;0.092;2023-03-04T10:21:48;1026.61;;;7.73;75.83
64230;BME280;50547;49.498;0.092;2023-03-04T10:24:20;1026.53;;;7.61;75.65
64230;BME280;50547;49.498;0.092;2023-03-04T10:26:52;1026.57;;;7.43;76.73
64230;BME280;50547;49.498;0.092;2023-03-04T10:29:23;1026.61;;;7.64;75.37
64230;BME280;50547;49.498;0.092;2023-03-04T10:31:52;1026.67;;;7.69;74.82
64230;BME280;50547;49.498;0.092;2023-03-04T10:34:21;1026.67;;;7.49;76.04
64230;BME280;50547;49.498;0.092;2023-03-04T10:36:55;1026.69;;;7.36;77.17
64230;BME280;50547;49.498;0.092;2023-03-04T10:39:28;1026.70;;;7.07;79.14
64230;BME280;50547;49.498;0.092;2023-03-04T10:41:59;1026.63;;;7.18;78.66
64230;BME280;50547;49.498;0.092;2023-03-04T10:44:31;1026.65;;;7.21;78.45
64230;BME280;50547;49.498;0.092;2023-03-04T10:47:01;1026.63;;;7.22;78.80
64230;BME280;50547;49.498;0.092;2023-03-04T10:49:28;1026.57;;;7.20;79.08
64230;BME280;50547;49.498;0.092;2023-03-04T10:52:02;1026.57;;;7.25;79.42
64230;BME280;50547;49.498;0.092;2023-03-04T10:54:39;1026.51;;;7.57;78.58
64230;BME280;50547;49.498;0.092;2023-03-04T10:57:15;1026.53;;;7.52;78.67
64230;BME280;50547;49.498;0.092;2023-03-04T10:59:46;1026.57;;;7.52;79.17
64230;BME280;50547;49.498;0.092;2023-03-04T11:02:20;1026.55;;;7.51;79.68
64230;BME280;50547;49.498;0.092;2023-03-04T11:04:52;1026.55;;;7.76;78.89
64230;BME280;50547;49.498;0.092;2023-03-04T11:07:23;1026.61;;;7.84;79.42
64230;BME280;50547;49.498;0.092;2023-03-04T11:09:53;1026.53;;;7.99;79.20
64230;BME280;50547;49.498;0.092;2023-03-04T11:12:32;1026.53;;;7.69;80.61
64230;BME280;50547;49.498;0.092;2023-03-04T11:15:03;1026.49;;;7.63;80.59
64230;BME280;50547;49.498;0.092;2023-03-04T11:17:43;1026.47;;;7.35;81.44
64230;BME280;50547;49.498;0.092;2023-03-04T11:20:17;1026.45;;;7.30;81.73
64230;BME280;50547;49.498;0.092;2023-03-04T11:22:52;1026.41;;;7.43;81.23
64230;BME280;50547;49.498;0.092;2023-03-04T11:25:26;1026.41;;;7.75;80.27
64230;BME280;50547;49.498;0.092;2023-03-04T11:27:58;1026.39;;;8.02;79.50
64230;BME280;50547;49.498;0.092;2023-03-04T11:30:32;1026.43;;;7.97;80.18
64230;BME280;50547;49.498;0.092;2023-03-04T11:33:11;1026.41;;;8.12;79.67
64230;BME280;50547;49.498;0.092;2023-03-04T11:35:50;1026.45;;;7.93;79.68
64230;BME280;50547;49.498;0.092;2023-03-04T11:38:25;1026.37;;;7.59;80.12
64230;BME280;50547;49.498;0.092;2023-03-04T11:40:58;1026.37;;;7.49;79.72
64230;BME280;50547;49.498;0.092;2023-03-04T11:43:32;1026.29;;;7.96;77.66
64230;BME280;50547;49.498;0.092;2023-03-04T11:46:28;1026.25;;;7.92;77.45
64230;BME280;50547;49.498;0.092;2023-03-04T11:49:15;1026.23;;;8.05;76.98
64230;BME280;50547;49.498;0.092;2023-03-04T11:51:52;1026.12;;;7.77;78.46
64230;BME280;50547;49.498;0.092;2023-03-04T11:54:31;1026.16;;;7.67;78.72
64230;BME280;50547;49.498;0.092;2023-03-04T11:57:06;1026.12;;;7.80;78.37
64230;BME280;50547;49.498;0.092;2023-03-04T11:59:49;1026.12;;;8.07;77.09
64230;BME280;50547;49.498;0.092;2023-03-04T12:02:22;1026.08;;;7.46;79.35
64230;BME280;50547;49.498;0.092;2023-03-04T12:05:11;1026.14;;;7.53;78.55
64230;BME280;50547;49.498;0.092;2023-03-04T12:07:50;1026.10;;;7.70;77.75
64230;BME280;50547;49.498;0.092;2023-03-04T12:10:28;1025.99;;;7.58;77.94
64230;BME280;50547;49.498;0.092;2023-03-04T12:13:11;1026.10;;;7.59;78.63
64230;BME280;50547;49.498;0.092;2023-03-04T12:15:50;1025.95;;;7.54;78.35
64230;BME280;50547;49.498;0.092;2023-03-04T12:18:31;1025.89;;;7.54;77.60
64230;BME280;50547;49.498;0.092;2023-03-04T12:21:14;1025.91;;;7.90;76.91
64230;BME280;50547;49.498;0.092;2023-03-04T12:23:59;1025.87;;;8.05;75.72
64230;BME280;50547;49.498;0.092;2023-03-04T12:26:37;1025.85;;;8.17;75.44
64230;BME280;50547;49.498;0.092;2023-03-04T12:29:13;1025.81;;;8.08;75.81
64230;BME280;50547;49.498;0.092;2023-03-04T12:31:49;1025.83;;;7.98;77.17
64230;BME280;50547;49.498;0.092;2023-03-04T12:34:31;1025.87;;;7.63;78.48
64230;BME280;50547;49.498;0.092;2023-03-04T12:37:22;1025.91;;;7.59;79.08
64230;BME280;50547;49.498;0.092;2023-03-04T12:40:05;1025.85;;;7.44;80.32
64230;BME280;50547;49.498;0.092;2023-03-04T12:42:43;1025.85;;;7.53;79.14
64230;BME280;50547;49.498;0.092;2023-03-04T12:45:20;1025.87;;;7.48;78.96
64230;BME280;50547;49.498;0.092;2023-03-04T12:48:00;1025.85;;;7.47;78.42
64230;BME280;50547;49.498;0.092;2023-03-04T12:50:38;1025.81;;;7.57;78.29
64230;BME280;50547;49.498;0.092;2023-03-04T12:53:17;1025.76;;;7.83;77.61
64230;BME280;50547;49.498;0.092;2023-03-04T12:55:49;1025.72;;;7.83;77.82
64230;BME280;50547;49.498;0.092;2023-03-04T12:58:20;1025.66;;;7.60;78.86
64230;BME280;50547;49.498;0.092;2023-03-04T13:00:56;1025.62;;;7.64;78.64
64230;BME280;50547;49.498;0.092;2023-03-04T13:03:37;1025.56;;;7.85;76.96
64230;BME280;50547;49.498;0.092;2023-03-04T13:06:19;1025.54;;;7.75;77.24
64230;BME280;50547;49.498;0.092;2023-03-04T13:09:00;1025.52;;;7.83;77.00
64230;BME280;50547;49.498;0.092;2023-03-04T13:11:39;1025.54;;;8.04;76.62
64230;BME280;50547;49.498;0.092;2023-03-04T13:14:23;1025.52;;;7.79;77.57
64230;BME280;50547;49.498;0.092;2023-03-04T13:16:54;1025.50;;;7.50;79.19
64230;BME280;50547;49.498;0.092;2023-03-04T13:20:04;1025.46;;;7.45;80.25
64230;BME280;50547;49.498;0.092;2023-03-04T13:22:45;1025.42;;;7.35;80.40
64230;BME280;50547;49.498;0.092;2023-03-04T13:25:34;1025.42;;;7.40;80.02
64230;BME280;50547;49.498;0.092;2023-03-04T13:28:14;1025.46;;;7.26;80.83
64230;BME280;50547;49.498;0.092;2023-03-04T13:35:59;1025.36;;;7.46;81.00
64230;BME280;50547;49.498;0.092;2023-03-04T13:38:32;1025.38;;;7.88;79.77
64230;BME280;50547;49.498;0.092;2023-03-04T13:41:13;1025.29;;;8.06;79.79
64230;BME280;50547;49.498;0.092;2023-03-04T13:43:44;1025.25;;;7.59;81.57
64230;BME280;50547;49.498;0.092;2023-03-04T13:46:39;1025.25;;;7.63;82.04
64230;BME280;50547;49.498;0.092;2023-03-04T13:49:20;1025.15;;;7.57;81.84
64230;BME280;50547;49.498;0.092;2023-03-04T13:51:50;1025.21;;;7.40;81.96